Eduardo Monteiro

Olheiro-Chefe - Braga
4 Abr 2027
Domingo
Processo

Personalidade

Adaptabilidade (4) Ambição (2) Controvérsia (8) Lealdade (20) Pressão (6) Profissionalismo (10) Espírito Esportivo (6) Temperamento (12)

Perfil

Estilo de Treinamento Democrático
Licença Nacional B
Determinação 15
Gestão de Pessoas 9
Motivação 13
Disciplina 15
Satisfação no Trabalho
100%
Fadiga
0%
Função Olheiro-Chefe
Salário 105.7K p/s
Contrato 14.03.2030

Desempenho

Comportamento Bom
Eficácia do Treinamento
40%
Desenvolvimento do Jogador
55%
Prevenção de Lesões
30%
Implementação Tática
55%

Eventos Recentes

Participou de uma reunião de recrutamento agora
Recomendou um alvo de transferência agora
Recomendou um alvo de transferência agora
Participou de uma reunião de recrutamento agora
Recomendou um alvo de transferência agora
Participou de uma reunião de recrutamento agora
Participou de uma reunião de recrutamento agora
Avaliou um jogador 7d atrás

Monitorando agora

137
Jogador Clube Status Habilidade Confiança Observado Última observação Último voto
Percy Erasmus SuperSport United Ativo 126 / 129 40% 5 02.04.2027 -
Wandile Duba Bidvest Wits Ativo 90 / 98 40% 2 02.04.2027 -
Mihailo Ivanović Millwall Ativo 121 / 130 40% 1 30.03.2027 -
Giorgos Koutsias Famalicao Ativo 125 / 113 40% 1 30.03.2027 -
Itumeleng Tau Ajax Cape Town Ativo 125 / 111 40% 4 27.03.2027 -
Lorent Tolaj Plymouth Argyle Ativo 122 / 114 40% 2 27.03.2027 -
Luciano Gondou CSKA Moscow Ativo 123 / 130 40% 4 25.03.2027 -
Henrique Araújo Casa Pia Ativo 125 / 118 40% 4 25.03.2027 -
Gustavo Silva Vitoria Guimaraes Ativo 114 / 121 40% 2 23.03.2027 -
Adriano Bertaccini Anderlecht Ativo 133 / 121 40% 6 20.03.2027 -
Korede Osundina Casa Pia Ativo 112 / 125 40% 3 19.03.2027 -
Aral Şimşir Trabzonspor Ativo 132 / 130 40% 2 19.03.2027 -
Morgan Whittaker Middlesbrough Ativo 134 / 136 40% 2 18.03.2027 -
Tamble Monteiro Rio Ave Ativo 113 / 123 40% 3 18.03.2027 -
Etiosa Ighodaro Kaizer Chiefs Ativo 96 / 105 40% 2 16.03.2027 -
Rumarn Burrell Queens Park Rangers Ativo 122 / 125 40% 3 16.03.2027 -
Jonathan Acquah WAFA Ativo 74 / 79 40% 1 15.03.2027 -
Stephen Amankona Aduana Stars Ativo 97 / 90 40% 1 13.03.2027 -
Lucas Duarte Felgueiras Ativo 97 / 106 40% 1 13.03.2027 -
Camilo Durán Bloemfontein Celtic Ativo 126 / 116 40% 6 12.03.2027 -
Kaio Jorge Cruzeiro Ativo 143 / 145 40% 5 11.03.2027 -
Figueiredo Alverca Ativo 141 / 133 40% 5 11.03.2027 -
Nicolò Tresoldi Club Brugge Ativo 136 / 140 40% 5 09.03.2027 -
Gonzalo Plata Dinamo Moscow Ativo 153 / 132 40% 3 03.03.2027 -
Mathias Jørgensen Blackburn Rovers Ativo 112 / 123 40% 2 03.03.2027 -
Martín Tejón Maritimo Ativo 125 / 126 40% 1 01.03.2027 -
Afimico Pululu Al-Hazem Ativo 125 / 120 40% 2 28.02.2027 -
Jalen Blesa Rio Ave Ativo 116 / 123 40% 1 19.02.2027 -
Josh Coburn Millwall Ativo 116 / 113 40% 1 17.02.2027 -
Brayan León Mamelodi Sundowns Ativo 114 / 115 40% 3 16.02.2027 -
Evidence Makgopa Orlando Pirates Ativo 118 / 104 40% 2 09.02.2027 -
Aidomo Emakhu Oxford United Ativo 118 / 127 40% 1 07.02.2027 -
Michy Fellaini KV Oostende Rejeitado 125 / 133 40% 7 03.02.2027 Rejeitar
Sam Greenwood Bristol City Ativo 117 / 118 40% 3 03.02.2027 -
Malcom Al Jazira Ativo 152 / 145 40% 1 25.01.2027 -
Dany Mota Monza Ativo 130 / 132 40% 1 25.01.2027 -
Fernando Fonseca Leixões Ativo 120 / 110 55% 1 18.01.2027 -
Jovon Makama Norwich City Ativo 122 / 130 40% 1 18.01.2027 -
Itumeleng Tau Ajax Cape Town Perdido 108 / 114 40% 1 12.01.2027 -
Camilo Durán Bloemfontein Celtic Perdido 118 / 113 40% 2 01.01.2027 -
Mao Hosoya Corinthians Negociando 134 / 135 67% 1 01.01.2027 Aprovar
Marvin Keller Young Boys Perdido 136 / 137 67% 1 01.01.2027 -
Bitello Dinamo Moscow Relatório pronto 135 / 135 68% 1 01.01.2027 Aprovar
Marcel Ruiz Toluca Ativo 140 / 141 66% 1 01.01.2027 Aprovar
Fashion Sakala Al-Fayha Perdido 137 / 125 40% 3 30.12.2026 -
Rafa Benfica Perdido 138 / 143 40% 2 30.12.2026 -
Ondrej Duda Zamalek Ativo 124 / 138 40% 1 30.12.2026 -
Facundo Pellistri Panathinaikos Ativo 144 / 132 40% 1 30.12.2026 -
Stav Toriel Hapoel Tel Aviv Ativo 129 / 125 40% 1 29.12.2026 -
Mehdi Ghayedi Al Nasr Ativo 116 / 127 40% 1 29.12.2026 -
Jason Januzaj Mouscron Ativo 159 / 142 40% 2 26.12.2026 -
Oli McBurnie Hull City Ativo 133 / 128 40% 4 25.12.2026 -
Mousa Meunier KV Oostende Perdido 139 / 122 40% 3 24.12.2026 -
Luis Vázquez Birmingham Ativo 128 / 130 40% 3 24.12.2026 -
Marco Pineda VfB Stuttgart Ativo 147 / 141 40% 7 23.12.2026 Observar
Veljko Birmančević Ferencvaros Ativo 121 / 137 40% 2 22.12.2026 -
Hwang Hee-Chan Wolverhampton Ativo 124 / 136 40% 2 21.12.2026 -
Mohamed Elyounoussi FC Copenhagen Ativo 144 / 127 40% 2 20.12.2026 -
Piotr Zieliński Inter Ativo 144 / 149 40% 1 20.12.2026 -
Sorriso Famalicao Ativo 118 / 126 40% 4 19.12.2026 -
Marquinhos Spartak Moscow Ativo 126 / 120 40% 1 19.12.2026 -
Nemanja Radonjić Crvena Zvezda Ativo 122 / 125 40% 1 17.12.2026 -
Theo Bongonda Al-Faisaly Ativo 147 / 130 40% 1 17.12.2026 -
Mathias Kvistgaarden Norwich City Ativo 131 / 119 40% 1 16.12.2026 -
Talisca Fenerbahce Ativo 147 / 146 40% 5 14.12.2026 -
Paulo Dybala AS Roma Ativo 145 / 149 40% 1 13.12.2026 -
Youssef En-Nesyri Al-Ittihad Ativo 131 / 148 40% 1 11.12.2026 -
Leandro Trossard Besiktas Ativo 177 / 155 40% 1 10.12.2026 -
Romelu Lukaku Fenerbahce Ativo 160 / 165 40% 4 07.12.2026 Observar
Ola Solbakken FC Nordsjaelland Ativo 119 / 122 40% 1 07.12.2026 -
Iqraam Rayners Mamelodi Sundowns Ativo 120 / 138 40% 5 04.12.2026 -
Soufiane Rahimi Al Ain Ativo 124 / 143 40% 1 04.12.2026 -
Domagoj Drožđek Tractor Ativo 109 / 115 40% 2 01.12.2026 -
Bertrand Traoré Sunderland Ativo 128 / 131 40% 4 01.12.2026 -
Nicolás Fernández Belgrano Ativo 121 / 127 40% 4 27.11.2026 -
Dom Ballard Leyton Orient Ativo 130 / 128 40% 1 26.11.2026 -
Yousef Salech Cardiff City Ativo 117 / 127 40% 1 25.11.2026 -
Musa Barrow Al-Khaleej Ativo 123 / 144 40% 2 24.11.2026 -
Erik Botheim Malmo FF Ativo 125 / 121 40% 2 20.11.2026 -
Nicolás Ibáñez Cruz Azul Ativo 127 / 130 40% 2 19.11.2026 -
Axel Openda KV Oostende Ativo 134 / 128 40% 2 18.11.2026 -
Diber Cambindo Leon Ativo 118 / 123 40% 3 15.11.2026 -
Erik Lira Cruz Azul Ativo 132 / 132 40% 2 15.11.2026 -
Iván Martín Racing Club Ativo 145 / 147 40% 1 15.11.2026 -
Alexis Vega Toluca Ativo 148 / 145 40% 5 14.11.2026 -
Ángel Correa River Plate Ativo 145 / 147 40% 3 11.11.2026 -
Mauro Arambarri River Plate Ativo 164 / 155 40% 2 11.11.2026 -
Jean-Luc Morin Tours Ativo 134 / 139 40% 2 08.11.2026 -
Moussa Dembélé Al-Ettifaq Ativo 114 / 130 40% 2 08.11.2026 -
Cesar Corona Veracruz Ativo 139 / 140 40% 3 07.11.2026 -
Ashkan Shojaei Siah Jamegan Ativo 110 / 123 40% 1 07.11.2026 -
José Paradela Cruz Azul Ativo 135 / 133 40% 1 05.11.2026 -
Gianluca Prestianni Benfica Ativo 145 / 145 40% 1 05.11.2026 -
Lukáš Provod Slavia Prague Ativo 163 / 152 40% 4 03.11.2026 -
Nuno Santos Sporting CP Ativo 141 / 144 40% 2 02.11.2026 -
Exequiel Zeballos Boca Juniors Ativo 131 / 135 40% 1 02.11.2026 -
Paulinho Toluca Ativo 150 / 137 40% 2 30.10.2026 -
Carles Gil New England Revolution Ativo 145 / 131 40% 3 27.10.2026 -
Ola Brynhildsen Bodo/Glimt Ativo 115 / 116 40% 1 25.10.2026 -
Hugo Cuypers Monterrey Ativo 116 / 126 40% 1 24.10.2026 -
Henry Martín Club America Ativo 138 / 134 40% 2 23.10.2026 -
Haris Tabaković Red Bull Salzburg Ativo 138 / 133 40% 1 23.10.2026 -
Achraf Bencharki Al Ahly Ativo 109 / 135 40% 3 22.10.2026 -
Rodrigo De Paul Inter Miami CF Ativo 152 / 153 40% 2 18.10.2026 -
Kein Sato FC Tokyo Ativo 114 / 132 40% 1 15.10.2026 -
Vinícius Lopes Santa Clara Ativo 112 / 125 40% 2 14.10.2026 Mais informações
Jesús Ricardo Angulo Toluca Ativo 142 / 131 40% 1 11.10.2026 -
Talles Magno New York City Ativo 129 / 127 40% 3 08.10.2026 -
Manfred Ugalde Spartak Moscow Ativo 114 / 128 40% 1 07.10.2026 -
João Palhinha Benfica Ativo 157 / 153 40% 1 06.10.2026 -
Sebastián Villa Boca Juniors Ativo 127 / 125 40% 3 04.10.2026 -
Ritsu Doan Gamba Osaka Ativo 146 / 145 40% 1 04.10.2026 -
Tadeo Allende Inter Miami CF Ativo 120 / 120 40% 1 03.10.2026 -
Sam Surridge Nashville SC Ativo 144 / 126 40% 2 30.09.2026 -
Kévin Denkey FC Cincinnati Ativo 122 / 132 40% 1 29.09.2026 -
Leo Ceara Kashima Antlers Ativo 142 / 144 40% 1 28.09.2026 -
Peter Shalulile Mamelodi Sundowns Ativo 117 / 120 40% 1 24.09.2026 -
Álex Arce Independiente Rivadavia Ativo 127 / 125 40% 1 24.09.2026 -
Marko Livaja Hajduk Split Ativo 141 / 129 40% 1 23.09.2026 -
Jhon Córdoba Krasnodar Ativo 133 / 137 40% 1 23.09.2026 -
Orbelín Pineda Monterrey Ativo 142 / 144 40% 1 23.09.2026 -
Nicolás Fernández Mercau New York City Ativo 139 / 137 40% 1 21.09.2026 -
Yanis Begraoui Estoril Praia Ativo 120 / 139 40% 2 17.09.2026 -
Joaquín Correa Estudiantes Ativo 126 / 132 40% 1 16.09.2026 -
Rafael Santos Borré River Plate Ativo 127 / 127 40% 1 14.09.2026 -
Wessam Abou Ali Columbus Crew Ativo 120 / 133 40% 2 11.09.2026 -
Dejan Joveljić Seattle Sounders Ativo 127 / 126 40% 2 11.09.2026 -
Thiago Almada River Plate Ativo 143 / 141 40% 1 11.09.2026 -
Bruno Larregui Juventud Ativo 108 / 116 40% 1 10.09.2026 -
Juan Cruz de los Santos Nacional Ativo 132 / 127 40% 1 10.09.2026 -
Jesus Ferreira Seattle Sounders Ativo 120 / 124 40% 1 09.08.2026 -
Pep Biel Charlotte Football Club Ativo 125 / 134 40% 1 08.08.2026 -
Fotis Ioannidis Sporting CP Ativo 134 / 129 40% 1 07.08.2026 -
Luis Suárez Sporting CP Ativo 148 / 155 40% 1 07.08.2026 -
Tiago Leite Felgueiras Ativo 114 / 105 51% 1 03.08.2026 -
Richarlison Tottenham Ativo 146 / 141 40% 1 01.08.2026 -
Pablo Durán Celta Ativo 142 / 133 40% 1 01.08.2026 -